sensor_id;sensor_type;location;lat;lon;timestamp;P1;durP1;ratioP1;P2;durP2;ratioP2
71679;SDS011;59512;42.662;23.254;2022-10-16T00:01:03;27.02;;;12.68;;
71679;SDS011;59512;42.662;23.254;2022-10-16T00:03:31;26.50;;;14.15;;
71679;SDS011;59512;42.662;23.254;2022-10-16T00:05:58;21.83;;;10.33;;
71679;SDS011;59512;42.662;23.254;2022-10-16T00:08:25;17.08;;;8.77;;
71679;SDS011;59512;42.662;23.254;2022-10-16T00:10:50;18.80;;;9.30;;
71679;SDS011;59512;42.662;23.254;2022-10-16T00:13:16;17.83;;;9.20;;
71679;SDS011;59512;42.662;23.254;2022-10-16T00:15:42;14.70;;;6.75;;
71679;SDS011;59512;42.662;23.254;2022-10-16T00:18:09;14.45;;;7.28;;
71679;SDS011;59512;42.662;23.254;2022-10-16T00:20:35;14.65;;;6.60;;
71679;SDS011;59512;42.662;23.254;2022-10-16T00:23:02;15.67;;;8.70;;
71679;SDS011;59512;42.662;23.254;2022-10-16T00:25:28;15.52;;;8.80;;
71679;SDS011;59512;42.662;23.254;2022-10-16T00:27:54;15.98;;;8.60;;
71679;SDS011;59512;42.662;23.254;2022-10-16T00:30:19;17.83;;;8.83;;
71679;SDS011;59512;42.662;23.254;2022-10-16T00:32:45;17.10;;;9.10;;
71679;SDS011;59512;42.662;23.254;2022-10-16T00:35:10;17.40;;;9.00;;
71679;SDS011;59512;42.662;23.254;2022-10-16T00:37:36;18.17;;;8.63;;
71679;SDS011;59512;42.662;23.254;2022-10-16T00:40:02;15.50;;;8.47;;
71679;SDS011;59512;42.662;23.254;2022-10-16T00:42:27;19.42;;;9.20;;
71679;SDS011;59512;42.662;23.254;2022-10-16T00:44:54;24.63;;;10.77;;
71679;SDS011;59512;42.662;23.254;2022-10-16T00:47:29;15.48;;;8.52;;
71679;SDS011;59512;42.662;23.254;2022-10-16T00:50:05;17.33;;;8.60;;
71679;SDS011;59512;42.662;23.254;2022-10-16T00:52:36;17.30;;;9.17;;
71679;SDS011;59512;42.662;23.254;2022-10-16T00:55:05;17.65;;;9.65;;
71679;SDS011;59512;42.662;23.254;2022-10-16T00:57:31;17.85;;;9.50;;
71679;SDS011;59512;42.662;23.254;2022-10-16T00:59:57;16.30;;;8.07;;
71679;SDS011;59512;42.662;23.254;2022-10-16T01:02:23;17.35;;;8.57;;
71679;SDS011;59512;42.662;23.254;2022-10-16T01:04:50;20.67;;;11.03;;
71679;SDS011;59512;42.662;23.254;2022-10-16T01:12:40;16.23;;;8.27;;
71679;SDS011;59512;42.662;23.254;2022-10-16T01:15:10;14.03;;;7.20;;
71679;SDS011;59512;42.662;23.254;2022-10-16T01:17:45;15.10;;;6.60;;
71679;SDS011;59512;42.662;23.254;2022-10-16T01:28:19;14.63;;;7.80;;
71679;SDS011;59512;42.662;23.254;2022-10-16T01:30:47;18.50;;;7.80;;
71679;SDS011;59512;42.662;23.254;2022-10-16T01:33:17;14.45;;;7.30;;
71679;SDS011;59512;42.662;23.254;2022-10-16T01:35:46;18.10;;;7.80;;
71679;SDS011;59512;42.662;23.254;2022-10-16T01:38:19;15.13;;;7.95;;
71679;SDS011;59512;42.662;23.254;2022-10-16T01:40:49;17.93;;;8.17;;
71679;SDS011;59512;42.662;23.254;2022-10-16T01:43:21;17.00;;;8.35;;
71679;SDS011;59512;42.662;23.254;2022-10-16T01:45:49;17.70;;;8.98;;
71679;SDS011;59512;42.662;23.254;2022-10-16T01:48:19;15.65;;;7.68;;
71679;SDS011;59512;42.662;23.254;2022-10-16T01:50:53;13.40;;;6.57;;
71679;SDS011;59512;42.662;23.254;2022-10-16T01:53:22;14.43;;;7.57;;
71679;SDS011;59512;42.662;23.254;2022-10-16T01:55:48;17.67;;;9.45;;
71679;SDS011;59512;42.662;23.254;2022-10-16T01:58:14;19.20;;;9.88;;
71679;SDS011;59512;42.662;23.254;2022-10-16T02:00:42;16.15;;;8.02;;
71679;SDS011;59512;42.662;23.254;2022-10-16T02:03:11;18.50;;;8.75;;
71679;SDS011;59512;42.662;23.254;2022-10-16T02:08:08;18.00;;;8.18;;
71679;SDS011;59512;42.662;23.254;2022-10-16T02:10:34;16.13;;;8.82;;
71679;SDS011;59512;42.662;23.254;2022-10-16T02:13:02;19.80;;;10.80;;
71679;SDS011;59512;42.662;23.254;2022-10-16T02:15:31;25.87;;;11.93;;
71679;SDS011;59512;42.662;23.254;2022-10-16T02:17:56;32.85;;;16.17;;
71679;SDS011;59512;42.662;23.254;2022-10-16T02:20:24;29.73;;;14.60;;
71679;SDS011;59512;42.662;23.254;2022-10-16T02:22:52;34.83;;;17.58;;
71679;SDS011;59512;42.662;23.254;2022-10-16T02:25:23;23.42;;;11.38;;
71679;SDS011;59512;42.662;23.254;2022-10-16T02:28:00;22.70;;;11.83;;
71679;SDS011;59512;42.662;23.254;2022-10-16T02:33:13;23.35;;;9.52;;
71679;SDS011;59512;42.662;23.254;2022-10-16T02:35:40;20.10;;;10.82;;
71679;SDS011;59512;42.662;23.254;2022-10-16T02:38:06;19.20;;;9.80;;
71679;SDS011;59512;42.662;23.254;2022-10-16T02:40:32;17.63;;;8.33;;
71679;SDS011;59512;42.662;23.254;2022-10-16T02:42:58;19.45;;;9.93;;
71679;SDS011;59512;42.662;23.254;2022-10-16T02:45:23;18.00;;;9.30;;
71679;SDS011;59512;42.662;23.254;2022-10-16T02:47:49;14.02;;;8.15;;
71679;SDS011;59512;42.662;23.254;2022-10-16T02:50:15;17.93;;;8.93;;
71679;SDS011;59512;42.662;23.254;2022-10-16T02:52:40;17.10;;;8.60;;
71679;SDS011;59512;42.662;23.254;2022-10-16T02:55:06;14.57;;;7.78;;
71679;SDS011;59512;42.662;23.254;2022-10-16T02:57:32;15.63;;;7.20;;
71679;SDS011;59512;42.662;23.254;2022-10-16T02:59:57;14.83;;;8.07;;
71679;SDS011;59512;42.662;23.254;2022-10-16T03:02:23;17.02;;;6.75;;
71679;SDS011;59512;42.662;23.254;2022-10-16T03:04:49;17.20;;;7.63;;
71679;SDS011;59512;42.662;23.254;2022-10-16T03:07:15;13.07;;;6.13;;
71679;SDS011;59512;42.662;23.254;2022-10-16T03:09:40;16.07;;;7.20;;
71679;SDS011;59512;42.662;23.254;2022-10-16T03:12:05;13.85;;;6.05;;
71679;SDS011;59512;42.662;23.254;2022-10-16T03:14:31;13.30;;;5.80;;
71679;SDS011;59512;42.662;23.254;2022-10-16T03:16:57;13.30;;;6.60;;
71679;SDS011;59512;42.662;23.254;2022-10-16T03:19:22;17.50;;;7.65;;
71679;SDS011;59512;42.662;23.254;2022-10-16T03:21:48;14.73;;;7.67;;
71679;SDS011;59512;42.662;23.254;2022-10-16T03:24:13;66.47;;;26.50;;
71679;SDS011;59512;42.662;23.254;2022-10-16T03:26:38;21.33;;;9.37;;
71679;SDS011;59512;42.662;23.254;2022-10-16T03:29:04;16.08;;;8.25;;
71679;SDS011;59512;42.662;23.254;2022-10-16T03:31:30;15.82;;;8.65;;
71679;SDS011;59512;42.662;23.254;2022-10-16T03:33:56;16.75;;;8.85;;
71679;SDS011;59512;42.662;23.254;2022-10-16T03:36:21;16.30;;;8.70;;
71679;SDS011;59512;42.662;23.254;2022-10-16T03:38:47;14.00;;;6.10;;
71679;SDS011;59512;42.662;23.254;2022-10-16T03:41:12;15.48;;;6.60;;
71679;SDS011;59512;42.662;23.254;2022-10-16T03:43:38;13.93;;;7.07;;
71679;SDS011;59512;42.662;23.254;2022-10-16T03:46:03;14.40;;;6.80;;
71679;SDS011;59512;42.662;23.254;2022-10-16T03:48:29;20.10;;;7.60;;
71679;SDS011;59512;42.662;23.254;2022-10-16T03:50:55;18.83;;;9.53;;
71679;SDS011;59512;42.662;23.254;2022-10-16T03:53:20;20.83;;;12.07;;
71679;SDS011;59512;42.662;23.254;2022-10-16T03:55:46;19.55;;;9.65;;
71679;SDS011;59512;42.662;23.254;2022-10-16T03:58:11;18.33;;;9.63;;
71679;SDS011;59512;42.662;23.254;2022-10-16T04:00:40;21.17;;;9.30;;
71679;SDS011;59512;42.662;23.254;2022-10-16T04:03:06;17.13;;;8.45;;
71679;SDS011;59512;42.662;23.254;2022-10-16T04:05:32;18.50;;;8.80;;
71679;SDS011;59512;42.662;23.254;2022-10-16T04:07:57;17.48;;;7.93;;
71679;SDS011;59512;42.662;23.254;2022-10-16T04:10:23;17.07;;;8.30;;
71679;SDS011;59512;42.662;23.254;2022-10-16T04:12:48;15.20;;;7.93;;
71679;SDS011;59512;42.662;23.254;2022-10-16T04:15:14;13.50;;;7.27;;
71679;SDS011;59512;42.662;23.254;2022-10-16T04:17:39;17.35;;;8.55;;
71679;SDS011;59512;42.662;23.254;2022-10-16T04:20:05;15.90;;;7.67;;
71679;SDS011;59512;42.662;23.254;2022-10-16T04:22:31;18.70;;;7.13;;
71679;SDS011;59512;42.662;23.254;2022-10-16T04:24:56;13.23;;;6.30;;
71679;SDS011;59512;42.662;23.254;2022-10-16T04:27:21;16.97;;;7.87;;
71679;SDS011;59512;42.662;23.254;2022-10-16T04:29:47;19.93;;;8.93;;
71679;SDS011;59512;42.662;23.254;2022-10-16T04:32:12;16.87;;;8.53;;
71679;SDS011;59512;42.662;23.254;2022-10-16T04:34:38;15.53;;;7.50;;
71679;SDS011;59512;42.662;23.254;2022-10-16T04:37:04;15.40;;;6.75;;
71679;SDS011;59512;42.662;23.254;2022-10-16T04:39:30;15.93;;;7.10;;
71679;SDS011;59512;42.662;23.254;2022-10-16T04:41:55;17.83;;;8.83;;
71679;SDS011;59512;42.662;23.254;2022-10-16T04:44:21;13.30;;;6.97;;
71679;SDS011;59512;42.662;23.254;2022-10-16T04:46:46;15.90;;;6.15;;
71679;SDS011;59512;42.662;23.254;2022-10-16T04:49:12;15.98;;;7.28;;
71679;SDS011;59512;42.662;23.254;2022-10-16T04:51:37;20.43;;;7.90;;
71679;SDS011;59512;42.662;23.254;2022-10-16T04:54:03;17.47;;;7.80;;
71679;SDS011;59512;42.662;23.254;2022-10-16T04:56:28;15.77;;;7.53;;
71679;SDS011;59512;42.662;23.254;2022-10-16T04:58:53;15.93;;;7.43;;
71679;SDS011;59512;42.662;23.254;2022-10-16T05:01:19;14.93;;;6.97;;
71679;SDS011;59512;42.662;23.254;2022-10-16T05:03:44;26.13;;;12.27;;
71679;SDS011;59512;42.662;23.254;2022-10-16T05:06:11;15.55;;;8.52;;
71679;SDS011;59512;42.662;23.254;2022-10-16T05:08:36;19.60;;;9.73;;
71679;SDS011;59512;42.662;23.254;2022-10-16T05:11:01;21.50;;;10.23;;
71679;SDS011;59512;42.662;23.254;2022-10-16T05:13:27;24.87;;;13.47;;
71679;SDS011;59512;42.662;23.254;2022-10-16T05:15:53;19.92;;;9.15;;
71679;SDS011;59512;42.662;23.254;2022-10-16T05:18:18;21.70;;;9.03;;
71679;SDS011;59512;42.662;23.254;2022-10-16T05:20:43;16.30;;;7.93;;
71679;SDS011;59512;42.662;23.254;2022-10-16T05:23:09;18.02;;;7.97;;
71679;SDS011;59512;42.662;23.254;2022-10-16T05:25:37;21.05;;;10.52;;
71679;SDS011;59512;42.662;23.254;2022-10-16T05:28:03;21.98;;;10.85;;
71679;SDS011;59512;42.662;23.254;2022-10-16T05:30:29;14.57;;;7.00;;
71679;SDS011;59512;42.662;23.254;2022-10-16T05:32:54;27.23;;;9.57;;
71679;SDS011;59512;42.662;23.254;2022-10-16T05:35:20;23.38;;;11.73;;
71679;SDS011;59512;42.662;23.254;2022-10-16T05:37:46;28.58;;;12.80;;
71679;SDS011;59512;42.662;23.254;2022-10-16T05:40:12;38.00;;;18.70;;
71679;SDS011;59512;42.662;23.254;2022-10-16T05:42:38;53.40;;;27.00;;
71679;SDS011;59512;42.662;23.254;2022-10-16T05:45:04;144.13;;;59.35;;
71679;SDS011;59512;42.662;23.254;2022-10-16T05:47:31;107.07;;;41.87;;
71679;SDS011;59512;42.662;23.254;2022-10-16T05:49:56;36.78;;;14.90;;
71679;SDS011;59512;42.662;23.254;2022-10-16T05:52:22;51.47;;;22.43;;
71679;SDS011;59512;42.662;23.254;2022-10-16T05:54:47;24.73;;;12.57;;
71679;SDS011;59512;42.662;23.254;2022-10-16T05:57:13;27.73;;;11.00;;
71679;SDS011;59512;42.662;23.254;2022-10-16T05:59:38;23.40;;;10.13;;
71679;SDS011;59512;42.662;23.254;2022-10-16T06:02:03;21.92;;;9.60;;
71679;SDS011;59512;42.662;23.254;2022-10-16T06:04:29;24.27;;;11.00;;
71679;SDS011;59512;42.662;23.254;2022-10-16T06:06:57;19.20;;;8.80;;
71679;SDS011;59512;42.662;23.254;2022-10-16T06:09:25;18.80;;;8.82;;
71679;SDS011;59512;42.662;23.254;2022-10-16T06:11:50;19.73;;;9.87;;
71679;SDS011;59512;42.662;23.254;2022-10-16T06:14:16;18.00;;;8.77;;
71679;SDS011;59512;42.662;23.254;2022-10-16T06:16:42;44.47;;;18.05;;
71679;SDS011;59512;42.662;23.254;2022-10-16T06:19:08;34.67;;;14.95;;
71679;SDS011;59512;42.662;23.254;2022-10-16T06:21:34;25.73;;;12.70;;
71679;SDS011;59512;42.662;23.254;2022-10-16T06:24:00;21.05;;;10.13;;
71679;SDS011;59512;42.662;23.254;2022-10-16T06:26:27;19.60;;;8.83;;
71679;SDS011;59512;42.662;23.254;2022-10-16T06:28:56;15.60;;;8.25;;
71679;SDS011;59512;42.662;23.254;2022-10-16T06:31:22;15.70;;;7.82;;
71679;SDS011;59512;42.662;23.254;2022-10-16T06:33:52;18.08;;;9.45;;
71679;SDS011;59512;42.662;23.254;2022-10-16T06:36:18;17.77;;;8.90;;
71679;SDS011;59512;42.662;23.254;2022-10-16T06:38:45;17.40;;;8.68;;
71679;SDS011;59512;42.662;23.254;2022-10-16T06:41:11;17.45;;;8.60;;
71679;SDS011;59512;42.662;23.254;2022-10-16T06:43:38;16.52;;;8.00;;
71679;SDS011;59512;42.662;23.254;2022-10-16T06:46:05;17.23;;;8.20;;
71679;SDS011;59512;42.662;23.254;2022-10-16T06:48:33;17.45;;;8.60;;
71679;SDS011;59512;42.662;23.254;2022-10-16T06:50:59;18.95;;;8.70;;
71679;SDS011;59512;42.662;23.254;2022-10-16T06:53:27;16.67;;;9.15;;
71679;SDS011;59512;42.662;23.254;2022-10-16T06:55:54;17.60;;;7.60;;
71679;SDS011;59512;42.662;23.254;2022-10-16T06:58:19;13.98;;;7.57;;
71679;SDS011;59512;42.662;23.254;2022-10-16T07:00:45;14.67;;;7.70;;
71679;SDS011;59512;42.662;23.254;2022-10-16T07:03:10;15.38;;;8.35;;
71679;SDS011;59512;42.662;23.254;2022-10-16T07:05:40;21.58;;;9.10;;
71679;SDS011;59512;42.662;23.254;2022-10-16T07:08:05;21.87;;;8.80;;
71679;SDS011;59512;42.662;23.254;2022-10-16T07:10:31;32.55;;;15.00;;
71679;SDS011;59512;42.662;23.254;2022-10-16T07:12:57;25.33;;;11.07;;
71679;SDS011;59512;42.662;23.254;2022-10-16T07:15:24;15.93;;;7.93;;
71679;SDS011;59512;42.662;23.254;2022-10-16T07:17:50;15.82;;;8.02;;
71679;SDS011;59512;42.662;23.254;2022-10-16T07:20:15;14.57;;;7.73;;
71679;SDS011;59512;42.662;23.254;2022-10-16T07:22:41;17.90;;;7.18;;
71679;SDS011;59512;42.662;23.254;2022-10-16T07:25:06;16.57;;;7.27;;
71679;SDS011;59512;42.662;23.254;2022-10-16T07:27:32;12.77;;;7.28;;
71679;SDS011;59512;42.662;23.254;2022-10-16T07:29:57;14.40;;;5.93;;
71679;SDS011;59512;42.662;23.254;2022-10-16T07:32:23;14.40;;;6.73;;
71679;SDS011;59512;42.662;23.254;2022-10-16T07:34:50;13.23;;;6.50;;
71679;SDS011;59512;42.662;23.254;2022-10-16T07:37:16;13.93;;;7.20;;
71679;SDS011;59512;42.662;23.254;2022-10-16T07:39:42;11.07;;;5.67;;
71679;SDS011;59512;42.662;23.254;2022-10-16T07:42:07;13.47;;;6.30;;
71679;SDS011;59512;42.662;23.254;2022-10-16T07:44:32;13.70;;;7.22;;
71679;SDS011;59512;42.662;23.254;2022-10-16T07:46:58;23.10;;;6.43;;
71679;SDS011;59512;42.662;23.254;2022-10-16T07:49:23;11.43;;;6.07;;
71679;SDS011;59512;42.662;23.254;2022-10-16T07:51:49;11.90;;;6.68;;
71679;SDS011;59512;42.662;23.254;2022-10-16T07:54:15;13.10;;;6.90;;
71679;SDS011;59512;42.662;23.254;2022-10-16T07:56:40;14.40;;;7.07;;
71679;SDS011;59512;42.662;23.254;2022-10-16T07:59:06;13.30;;;7.47;;
71679;SDS011;59512;42.662;23.254;2022-10-16T08:01:31;11.85;;;6.47;;
71679;SDS011;59512;42.662;23.254;2022-10-16T08:03:56;12.07;;;6.00;;
71679;SDS011;59512;42.662;23.254;2022-10-16T08:06:22;12.87;;;6.53;;
71679;SDS011;59512;42.662;23.254;2022-10-16T08:08:48;13.00;;;6.57;;
71679;SDS011;59512;42.662;23.254;2022-10-16T08:11:14;13.33;;;7.47;;
71679;SDS011;59512;42.662;23.254;2022-10-16T08:13:40;13.40;;;6.80;;
71679;SDS011;59512;42.662;23.254;2022-10-16T08:16:06;14.80;;;6.82;;
71679;SDS011;59512;42.662;23.254;2022-10-16T08:18:33;14.48;;;6.80;;
71679;SDS011;59512;42.662;23.254;2022-10-16T08:21:02;10.63;;;6.17;;
71679;SDS011;59512;42.662;23.254;2022-10-16T08:23:29;15.40;;;7.43;;
71679;SDS011;59512;42.662;23.254;2022-10-16T08:25:55;18.98;;;8.25;;
71679;SDS011;59512;42.662;23.254;2022-10-16T08:28:21;14.07;;;7.15;;
71679;SDS011;59512;42.662;23.254;2022-10-16T08:30:47;12.02;;;6.07;;
71679;SDS011;59512;42.662;23.254;2022-10-16T08:33:12;14.67;;;6.27;;
71679;SDS011;59512;42.662;23.254;2022-10-16T08:35:38;12.82;;;6.13;;
71679;SDS011;59512;42.662;23.254;2022-10-16T08:38:04;13.20;;;6.73;;
71679;SDS011;59512;42.662;23.254;2022-10-16T08:40:30;15.10;;;6.50;;
71679;SDS011;59512;42.662;23.254;2022-10-16T08:50:51;12.02;;;5.38;;
71679;SDS011;59512;42.662;23.254;2022-10-16T08:53:28;10.25;;;5.18;;
71679;SDS011;59512;42.662;23.254;2022-10-16T08:55:56;15.18;;;5.60;;
71679;SDS011;59512;42.662;23.254;2022-10-16T08:58:26;12.67;;;5.23;;
71679;SDS011;59512;42.662;23.254;2022-10-16T09:00:54;14.88;;;7.15;;
71679;SDS011;59512;42.662;23.254;2022-10-16T09:06:09;9.52;;;4.30;;
71679;SDS011;59512;42.662;23.254;2022-10-16T09:20:32;11.82;;;5.25;;
71679;SDS011;59512;42.662;23.254;2022-10-16T09:23:13;8.98;;;3.40;;
71679;SDS011;59512;42.662;23.254;2022-10-16T09:25:50;10.73;;;3.30;;
71679;SDS011;59512;42.662;23.254;2022-10-16T09:28:17;6.72;;;2.80;;
71679;SDS011;59512;42.662;23.254;2022-10-16T09:30:43;7.32;;;3.60;;
71679;SDS011;59512;42.662;23.254;2022-10-16T09:33:10;11.70;;;4.67;;
71679;SDS011;59512;42.662;23.254;2022-10-16T09:35:37;14.13;;;4.57;;
71679;SDS011;59512;42.662;23.254;2022-10-16T09:38:29;12.02;;;4.03;;
71679;SDS011;59512;42.662;23.254;2022-10-16T09:41:00;21.80;;;7.88;;
71679;SDS011;59512;42.662;23.254;2022-10-16T09:43:27;6.00;;;2.58;;
71679;SDS011;59512;42.662;23.254;2022-10-16T09:45:58;8.77;;;2.50;;
71679;SDS011;59512;42.662;23.254;2022-10-16T09:48:27;6.70;;;2.80;;
71679;SDS011;59512;42.662;23.254;2022-10-16T09:50:57;15.63;;;4.80;;
71679;SDS011;59512;42.662;23.254;2022-10-16T09:53:24;11.93;;;4.80;;
71679;SDS011;59512;42.662;23.254;2022-10-16T09:55:52;7.32;;;2.63;;
71679;SDS011;59512;42.662;23.254;2022-10-16T09:58:21;11.83;;;3.50;;
71679;SDS011;59512;42.662;23.254;2022-10-16T10:00:51;8.57;;;3.15;;
71679;SDS011;59512;42.662;23.254;2022-10-16T10:03:35;7.28;;;3.28;;
71679;SDS011;59512;42.662;23.254;2022-10-16T10:06:05;13.10;;;5.22;;
71679;SDS011;59512;42.662;23.254;2022-10-16T10:08:39;14.38;;;5.57;;
71679;SDS011;59512;42.662;23.254;2022-10-16T10:11:04;13.37;;;5.47;;
71679;SDS011;59512;42.662;23.254;2022-10-16T10:13:30;8.63;;;3.90;;
71679;SDS011;59512;42.662;23.254;2022-10-16T10:15:55;6.97;;;2.57;;
71679;SDS011;59512;42.662;23.254;2022-10-16T10:18:21;13.77;;;5.43;;
71679;SDS011;59512;42.662;23.254;2022-10-16T10:20:58;7.95;;;3.20;;
71679;SDS011;59512;42.662;23.254;2022-10-16T10:23:26;9.52;;;2.50;;
71679;SDS011;59512;42.662;23.254;2022-10-16T10:34:11;5.97;;;2.28;;
71679;SDS011;59512;42.662;23.254;2022-10-16T10:43:13;7.22;;;2.58;;
71679;SDS011;59512;42.662;23.254;2022-10-16T10:45:52;6.75;;;2.28;;
71679;SDS011;59512;42.662;23.254;2022-10-16T10:51:10;7.93;;;3.13;;
71679;SDS011;59512;42.662;23.254;2022-10-16T11:02:35;7.20;;;3.47;;
71679;SDS011;59512;42.662;23.254;2022-10-16T11:16:14;6.72;;;2.50;;
71679;SDS011;59512;42.662;23.254;2022-10-16T11:21:24;5.43;;;2.15;;
71679;SDS011;59512;42.662;23.254;2022-10-16T11:23:53;7.45;;;2.53;;
71679;SDS011;59512;42.662;23.254;2022-10-16T11:26:26;8.38;;;2.72;;
71679;SDS011;59512;42.662;23.254;2022-10-16T11:28:54;6.25;;;2.67;;
71679;SDS011;59512;42.662;23.254;2022-10-16T11:34:12;5.90;;;1.90;;
71679;SDS011;59512;42.662;23.254;2022-10-16T11:39:45;8.77;;;3.72;;
71679;SDS011;59512;42.662;23.254;2022-10-16T11:47:40;5.55;;;2.05;;
71679;SDS011;59512;42.662;23.254;2022-10-16T12:00:55;6.05;;;2.60;;
71679;SDS011;59512;42.662;23.254;2022-10-16T12:03:34;6.65;;;2.30;;
71679;SDS011;59512;42.662;23.254;2022-10-16T12:06:13;6.80;;;2.38;;
71679;SDS011;59512;42.662;23.254;2022-10-16T12:08:51;5.93;;;1.77;;
71679;SDS011;59512;42.662;23.254;2022-10-16T12:13:51;7.47;;;1.38;;
71679;SDS011;59512;42.662;23.254;2022-10-16T12:16:28;6.05;;;2.38;;
71679;SDS011;59512;42.662;23.254;2022-10-16T12:19:09;9.93;;;3.50;;
71679;SDS011;59512;42.662;23.254;2022-10-16T12:21:42;7.43;;;2.92;;
71679;SDS011;59512;42.662;23.254;2022-10-16T12:26:55;10.00;;;3.20;;
71679;SDS011;59512;42.662;23.254;2022-10-16T12:31:55;7.68;;;3.05;;
71679;SDS011;59512;42.662;23.254;2022-10-16T12:34:22;8.73;;;3.30;;
71679;SDS011;59512;42.662;23.254;2022-10-16T12:36:51;7.85;;;3.13;;
71679;SDS011;59512;42.662;23.254;2022-10-16T12:39:21;7.60;;;2.70;;
71679;SDS011;59512;42.662;23.254;2022-10-16T12:41:47;5.13;;;1.92;;
71679;SDS011;59512;42.662;23.254;2022-10-16T12:44:23;6.93;;;2.03;;
71679;SDS011;59512;42.662;23.254;2022-10-16T12:46:49;6.75;;;2.40;;
71679;SDS011;59512;42.662;23.254;2022-10-16T12:51:53;6.45;;;2.63;;
71679;SDS011;59512;42.662;23.254;2022-10-16T12:54:29;7.70;;;2.50;;
71679;SDS011;59512;42.662;23.254;2022-10-16T13:02:32;4.40;;;1.88;;
71679;SDS011;59512;42.662;23.254;2022-10-16T13:16:18;9.02;;;3.78;;
71679;SDS011;59512;42.662;23.254;2022-10-16T13:19:11;8.18;;;2.55;;
71679;SDS011;59512;42.662;23.254;2022-10-16T13:27:41;9.20;;;2.90;;
71679;SDS011;59512;42.662;23.254;2022-10-16T13:30:15;7.05;;;2.25;;
71679;SDS011;59512;42.662;23.254;2022-10-16T13:32:46;4.95;;;1.60;;
71679;SDS011;59512;42.662;23.254;2022-10-16T13:35:21;6.93;;;2.70;;
71679;SDS011;59512;42.662;23.254;2022-10-16T13:38:02;5.60;;;2.03;;
71679;SDS011;59512;42.662;23.254;2022-10-16T13:40:55;7.82;;;3.35;;
71679;SDS011;59512;42.662;23.254;2022-10-16T13:43:43;7.40;;;3.40;;
71679;SDS011;59512;42.662;23.254;2022-10-16T13:46:16;12.27;;;5.80;;
71679;SDS011;59512;42.662;23.254;2022-10-16T13:48:56;8.40;;;2.95;;
71679;SDS011;59512;42.662;23.254;2022-10-16T13:51:22;8.10;;;3.07;;
71679;SDS011;59512;42.662;23.254;2022-10-16T13:53:47;6.15;;;2.50;;
71679;SDS011;59512;42.662;23.254;2022-10-16T13:56:14;5.77;;;2.40;;
71679;SDS011;59512;42.662;23.254;2022-10-16T13:58:41;5.50;;;2.03;;
71679;SDS011;59512;42.662;23.254;2022-10-16T14:01:16;7.00;;;2.30;;
71679;SDS011;59512;42.662;23.254;2022-10-16T14:03:43;6.13;;;1.90;;
71679;SDS011;59512;42.662;23.254;2022-10-16T14:06:27;6.90;;;2.10;;
71679;SDS011;59512;42.662;23.254;2022-10-16T14:09:38;5.85;;;2.13;;
71679;SDS011;59512;42.662;23.254;2022-10-16T14:11:44;5.82;;;2.38;;
71679;SDS011;59512;42.662;23.254;2022-10-16T14:14:11;6.17;;;2.00;;
71679;SDS011;59512;42.662;23.254;2022-10-16T14:16:37;5.07;;;2.00;;
71679;SDS011;59512;42.662;23.254;2022-10-16T14:19:06;4.35;;;1.73;;
71679;SDS011;59512;42.662;23.254;2022-10-16T14:21:32;6.45;;;2.25;;
71679;SDS011;59512;42.662;23.254;2022-10-16T14:23:58;10.85;;;2.50;;
71679;SDS011;59512;42.662;23.254;2022-10-16T14:26:24;13.93;;;2.40;;
71679;SDS011;59512;42.662;23.254;2022-10-16T14:29:02;7.38;;;2.40;;
71679;SDS011;59512;42.662;23.254;2022-10-16T14:31:35;5.90;;;1.90;;
71679;SDS011;59512;42.662;23.254;2022-10-16T14:34:02;6.93;;;2.15;;
71679;SDS011;59512;42.662;23.254;2022-10-16T14:36:27;7.10;;;2.40;;
71679;SDS011;59512;42.662;23.254;2022-10-16T14:39:03;8.38;;;2.28;;
71679;SDS011;59512;42.662;23.254;2022-10-16T14:41:30;7.45;;;2.47;;
71679;SDS011;59512;42.662;23.254;2022-10-16T14:44:00;5.53;;;1.92;;
71679;SDS011;59512;42.662;23.254;2022-10-16T14:46:32;5.30;;;1.80;;
71679;SDS011;59512;42.662;23.254;2022-10-16T14:49:04;5.27;;;1.77;;
71679;SDS011;59512;42.662;23.254;2022-10-16T14:51:39;5.97;;;2.63;;
71679;SDS011;59512;42.662;23.254;2022-10-16T14:54:07;6.30;;;1.90;;
71679;SDS011;59512;42.662;23.254;2022-10-16T14:56:35;5.53;;;1.70;;
71679;SDS011;59512;42.662;23.254;2022-10-16T14:59:14;5.45;;;1.80;;
71679;SDS011;59512;42.662;23.254;2022-10-16T15:01:43;6.87;;;2.00;;
71679;SDS011;59512;42.662;23.254;2022-10-16T15:04:09;4.45;;;1.55;;
71679;SDS011;59512;42.662;23.254;2022-10-16T15:06:36;4.60;;;1.70;;
71679;SDS011;59512;42.662;23.254;2022-10-16T15:09:02;5.43;;;1.58;;
71679;SDS011;59512;42.662;23.254;2022-10-16T15:11:28;5.20;;;1.87;;
71679;SDS011;59512;42.662;23.254;2022-10-16T15:13:53;6.63;;;2.10;;
71679;SDS011;59512;42.662;23.254;2022-10-16T15:16:19;6.35;;;2.30;;
71679;SDS011;59512;42.662;23.254;2022-10-16T15:18:45;6.78;;;2.20;;
71679;SDS011;59512;42.662;23.254;2022-10-16T15:21:21;7.50;;;2.40;;
71679;SDS011;59512;42.662;23.254;2022-10-16T15:23:50;10.02;;;3.15;;
71679;SDS011;59512;42.662;23.254;2022-10-16T15:26:18;6.53;;;2.20;;
71679;SDS011;59512;42.662;23.254;2022-10-16T15:28:43;9.00;;;2.87;;
71679;SDS011;59512;42.662;23.254;2022-10-16T15:31:09;6.85;;;2.92;;
71679;SDS011;59512;42.662;23.254;2022-10-16T15:33:34;7.50;;;2.53;;
71679;SDS011;59512;42.662;23.254;2022-10-16T15:36:00;8.10;;;2.73;;
71679;SDS011;59512;42.662;23.254;2022-10-16T15:38:26;7.65;;;2.88;;
71679;SDS011;59512;42.662;23.254;2022-10-16T15:40:52;12.15;;;3.40;;
71679;SDS011;59512;42.662;23.254;2022-10-16T15:43:18;8.53;;;3.27;;
71679;SDS011;59512;42.662;23.254;2022-10-16T15:45:44;6.57;;;2.77;;
71679;SDS011;59512;42.662;23.254;2022-10-16T15:48:10;8.18;;;2.53;;
71679;SDS011;59512;42.662;23.254;2022-10-16T15:50:38;9.63;;;3.65;;
71679;SDS011;59512;42.662;23.254;2022-10-16T15:53:04;6.75;;;2.30;;
71679;SDS011;59512;42.662;23.254;2022-10-16T15:55:29;7.80;;;3.00;;
71679;SDS011;59512;42.662;23.254;2022-10-16T15:57:55;6.97;;;3.30;;
71679;SDS011;59512;42.662;23.254;2022-10-16T16:00:20;7.18;;;2.67;;
71679;SDS011;59512;42.662;23.254;2022-10-16T16:02:50;6.55;;;2.63;;
71679;SDS011;59512;42.662;23.254;2022-10-16T16:05:18;8.82;;;3.00;;
71679;SDS011;59512;42.662;23.254;2022-10-16T16:07:45;8.60;;;3.25;;
71679;SDS011;59512;42.662;23.254;2022-10-16T16:10:10;10.60;;;3.83;;
71679;SDS011;59512;42.662;23.254;2022-10-16T16:12:37;7.57;;;3.20;;
71679;SDS011;59512;42.662;23.254;2022-10-16T16:15:03;14.20;;;5.28;;
71679;SDS011;59512;42.662;23.254;2022-10-16T16:17:30;10.27;;;4.70;;
71679;SDS011;59512;42.662;23.254;2022-10-16T16:19:56;10.45;;;5.25;;
71679;SDS011;59512;42.662;23.254;2022-10-16T16:22:21;13.77;;;5.43;;
71679;SDS011;59512;42.662;23.254;2022-10-16T16:24:47;18.88;;;7.22;;
71679;SDS011;59512;42.662;23.254;2022-10-16T16:27:12;38.20;;;17.77;;
71679;SDS011;59512;42.662;23.254;2022-10-16T16:29:38;44.05;;;17.90;;
71679;SDS011;59512;42.662;23.254;2022-10-16T16:32:04;20.93;;;7.93;;
71679;SDS011;59512;42.662;23.254;2022-10-16T16:34:29;20.00;;;10.30;;
71679;SDS011;59512;42.662;23.254;2022-10-16T16:36:55;17.60;;;8.52;;
71679;SDS011;59512;42.662;23.254;2022-10-16T16:39:22;32.23;;;15.53;;
71679;SDS011;59512;42.662;23.254;2022-10-16T16:41:47;39.13;;;27.90;;
71679;SDS011;59512;42.662;23.254;2022-10-16T16:44:13;66.82;;;47.88;;